Time;durP1;ratioP1;P1;durP2;ratioP2;P2;SDS_P1;SDS_P2;PMS_P1;PMS_P2;Temp;Humidity;BMP_temperature;BMP_pressure;BME280_temperature;BME280_humidity;BME280_pressure;Samples;Min_cycle;Max_cycle;Signal;HPM_P1;HPM_P2
2021/07/01 00:02:33;;;;;;;8.52;7.28;;;;;;;18.98;81.50;98790.88;5068944;28;20379;-71
2021/07/01 00:05:13;;;;;;;12.05;7.45;;;;;;;18.99;81.99;98785.47;5069222;28;20371;-71
2021/07/01 00:07:51;;;;;;;9.23;7.18;;;;;;;19.04;81.25;98791.25;5069360;28;20374;-72
2021/07/01 00:10:28;;;;;;;13.27;7.32;;;;;;;19.19;81.80;98804.34;5109329;27;20128;-71
2021/07/01 00:13:06;;;;;;;11.00;7.30;;;;;;;19.20;80.79;98795.44;5069419;28;20371;-70
2021/07/01 00:15:44;;;;;;;15.60;7.50;;;;;;;19.27;80.57;98805.47;5069555;28;20379;-72
2021/07/01 00:18:22;;;;;;;11.27;7.70;;;;;;;19.17;80.95;98777.94;5069062;28;20378;-71
2021/07/01 00:21:01;;;;;;;10.55;7.80;;;;;;;19.26;80.68;98784.34;5069118;28;20733;-72
2021/07/01 00:23:37;;;;;;;11.50;8.60;;;;;;;19.36;80.64;98801.31;5080164;27;2068902;-73
2021/07/01 00:26:15;;;;;;;9.40;8.38;;;;;;;19.31;80.65;98803.41;5067822;28;20402;-72
2021/07/01 00:28:53;;;;;;;9.13;7.82;;;;;;;19.36;80.59;98807.44;5088160;27;20374;-73
2021/07/01 00:31:32;;;;;;;10.20;7.75;;;;;;;19.41;81.02;98803.59;5068721;27;20372;-71
2021/07/01 00:34:24;;;;;;;10.60;8.43;;;;;;;19.34;80.13;98782.00;5129286;27;20120;-71
2021/07/01 00:37:00;;;;;;;9.67;8.10;;;;;;;19.45;80.05;98787.34;5077590;27;2111054;-71
2021/07/01 00:39:38;;;;;;;8.57;7.68;;;;;;;19.31;80.10;98771.59;5068896;28;20379;-82
2021/07/01 00:42:16;;;;;;;10.65;8.25;;;;;;;19.29;80.46;98779.66;5109625;27;20368;-85
2021/07/01 00:44:53;;;;;;;10.85;8.00;;;;;;;19.34;80.27;98779.34;5108450;27;1398086;-81
2021/07/01 00:47:32;;;;;;;15.75;8.32;;;;;;;19.31;80.55;98793.66;5109408;27;20384;-80
2021/07/01 00:50:13;;;;;;;13.43;8.80;;;;;;;19.38;80.49;98787.94;5068431;28;20386;-85
2021/07/01 00:52:54;;;;;;;13.05;6.97;;;;;;;20.06;78.09;98784.44;5071645;28;20375;-84
2021/07/01 00:55:31;;;;;;;13.93;8.52;;;;;;;19.95;78.56;98783.47;5111317;27;20129;-82
2021/07/01 00:58:09;;;;;;;10.07;8.07;;;;;;;19.81;78.14;98766.94;5112025;27;20376;-84
2021/07/01 01:03:30;;;;;;;15.93;8.23;;;;;;;19.70;78.83;98786.34;5113812;27;20777;-81
2021/07/01 01:06:08;;;;;;;12.70;8.02;;;;;;;19.61;79.54;98784.41;5075453;27;2266317;-77
2021/07/01 01:08:53;;;;;;;9.70;8.70;;;;;;;19.48;79.62;98778.31;5068976;28;20386;-78
2021/07/01 01:11:31;;;;;;;12.25;10.88;;;;;;;19.44;80.29;98783.00;5083581;28;20403;-82
2021/07/01 01:14:30;;;;;;;11.48;8.68;;;;;;;19.35;80.38;98779.25;5110049;27;20120;-83
2021/07/01 01:17:12;;;;;;;11.77;9.15;;;;;;;19.37;80.76;98776.47;5069780;28;20371;-82
2021/07/01 01:19:53;;;;;;;12.20;8.90;;;;;;;19.44;80.57;98779.50;5109849;27;20374;-84
2021/07/01 01:22:31;;;;;;;22.02;9.57;;;;;;;19.44;80.60;98776.84;5109736;27;20375;-81
2021/07/01 01:25:12;;;;;;;15.35;8.52;;;;;;;19.41;80.71;98766.47;5105199;27;1375745;-81
2021/07/01 01:27:48;;;;;;;11.02;8.82;;;;;;;19.51;80.61;98778.06;5106169;27;1371452;-80
2021/07/01 01:30:26;;;;;;;17.30;8.85;;;;;;;19.57;80.27;98772.34;5068843;28;20383;-81
2021/07/01 01:33:25;;;;;;;9.50;8.60;;;;;;;19.57;80.19;98767.03;5068829;28;20392;-80
2021/07/01 01:36:23;;;;;;;11.52;8.63;;;;;;;19.53;80.49;98765.56;5129318;27;20196;-79
2021/07/01 01:39:20;;;;;;;13.27;8.85;;;;;;;19.57;80.34;98761.72;5105113;27;1365685;-79
2021/07/01 01:42:18;;;;;;;13.38;8.55;;;;;;;19.50;80.35;98768.44;5068853;28;20379;-79
2021/07/01 01:45:15;;;;;;;11.73;8.27;;;;;;;19.29;81.38;98754.97;5108468;27;20400;-81
2021/07/01 01:48:20;;;;;;;20.98;8.55;;;;;;;19.46;81.50;98774.94;5068096;28;20749;-78
2021/07/01 01:51:20;;;;;;;11.10;8.07;;;;;;;19.45;81.72;98778.53;5069034;28;20900;-79
2021/07/01 01:54:21;;;;;;;12.57;7.40;;;;;;;19.44;81.51;98775.03;5067928;28;20387;-80
2021/07/01 01:57:27;;;;;;;7.40;6.47;;;;;;;19.45;81.65;98784.69;5069550;28;20390;-80
2021/07/01 02:00:25;;;;;;;7.68;6.93;;;;;;;19.35;81.99;98784.53;5068836;27;20383;-81
2021/07/01 02:03:26;;;;;;;7.68;6.40;;;;;;;19.43;81.40;98781.31;5069885;28;20386;-83
2021/07/01 02:06:28;;;;;;;8.00;6.28;;;;;;;19.48;81.52;98783.63;5109788;27;20384;-82
2021/07/01 02:09:24;;;;;;;6.60;5.95;;;;;;;19.38;81.50;98777.31;5069511;28;20378;-82
2021/07/01 02:12:24;;;;;;;7.38;6.30;;;;;;;19.54;80.86;98791.13;5068817;28;20379;-81
2021/07/01 02:15:24;;;;;;;8.57;5.72;;;;;;;19.58;80.86;98787.28;5109511;27;20343;-81
2021/07/01 02:18:26;;;;;;;10.23;5.90;;;;;;;19.62;80.69;98786.09;5068621;28;20383;-81
2021/07/01 02:21:22;;;;;;;10.10;5.67;;;;;;;19.67;80.70;98792.72;5080110;27;2053697;-82
2021/07/01 02:24:18;;;;;;;7.10;6.13;;;;;;;19.51;80.40;98759.50;5068576;28;20375;-80
2021/07/01 02:27:16;;;;;;;6.22;5.63;;;;;;;19.73;80.26;98795.88;5068828;28;20378;-85
2021/07/01 02:30:14;;;;;;;6.38;5.78;;;;;;;19.70;79.95;98794.31;5102991;27;1424603;-85
2021/07/01 02:33:10;;;;;;;8.73;5.40;;;;;;;19.68;80.20;98790.94;5105331;27;1370177;-83
2021/07/01 02:36:07;;;;;;;6.40;4.97;;;;;;;19.68;80.10;98793.56;5103906;27;1408223;-81
2021/07/01 02:39:07;;;;;;;11.25;5.45;;;;;;;19.69;80.38;98797.91;5109118;27;20376;-81
2021/07/01 02:42:06;;;;;;;8.88;5.18;;;;;;;19.74;80.03;98797.56;5068531;27;20379;-85
2021/07/01 02:45:10;;;;;;;9.27;4.35;;;;;;;19.75;79.57;98796.59;5068207;28;20387;-83
2021/07/01 02:48:07;;;;;;;11.00;5.35;;;;;;;19.62;80.51;98788.75;5102424;27;1384657;-81
2021/07/01 02:51:07;;;;;;;12.75;5.20;;;;;;;19.50;80.30;98765.78;5088861;27;20395;-84
2021/07/01 02:54:04;;;;;;;9.68;4.70;;;;;;;19.66;80.49;98787.53;5068227;28;21343;-85
2021/07/01 02:57:03;;;;;;;5.53;4.32;;;;;;;19.72;79.63;98770.31;5068775;28;20397;-82
2021/07/01 02:59:58;;;;;;;5.75;4.10;;;;;;;19.84;78.83;98770.19;5109688;27;20372;-84
2021/07/01 03:02:52;;;;;;;7.10;4.03;;;;;;;19.98;79.11;98788.53;5102421;27;1457909;-77
2021/07/01 03:05:48;;;;;;;4.82;3.78;;;;;;;19.99;78.85;98773.47;5068672;28;20740;-85
2021/07/01 03:08:44;;;;;;;6.22;3.90;;;;;;;20.05;77.94;98777.44;5109425;27;20727;-81
2021/07/01 03:11:40;;;;;;;8.07;3.30;;;;;;;20.06;78.70;98779.97;5109722;27;20376;-82
2021/07/01 03:14:37;;;;;;;6.32;3.28;;;;;;;20.19;77.58;98794.00;5110188;27;20125;-84
2021/07/01 03:17:38;;;;;;;4.40;3.30;;;;;;;20.15;77.72;98789.06;5110483;27;20140;-85
2021/07/01 03:20:33;;;;;;;4.45;3.05;;;;;;;20.26;77.74;98791.72;5110046;27;20380;-80
2021/07/01 03:23:29;;;;;;;5.68;3.08;;;;;;;20.27;77.54;98791.59;5110283;27;20379;-83
2021/07/01 03:26:25;;;;;;;3.17;2.88;;;;;;;20.37;77.45;98789.06;5068810;28;20394;-83
2021/07/01 03:29:21;;;;;;;5.53;2.90;;;;;;;20.45;76.86;98802.59;5070594;27;2104624;-83
2021/07/01 03:32:23;;;;;;;5.97;3.05;;;;;;;20.36;77.41;98802.47;5109765;27;20383;-83
2021/07/01 03:35:21;;;;;;;5.22;3.05;;;;;;;20.36;77.85;98808.63;5089024;27;20348;-84
2021/07/01 03:38:18;;;;;;;3.88;3.00;;;;;;;20.22;77.61;98779.66;5068907;28;20390;-82
2021/07/01 03:41:13;;;;;;;5.18;2.70;;;;;;;20.36;77.57;98790.03;5067847;28;20394;-84
2021/07/01 03:44:11;;;;;;;6.00;3.55;;;;;;;20.21;77.98;98789.44;5109186;27;20376;-82
2021/07/01 03:47:08;;;;;;;7.28;3.72;;;;;;;20.23;77.50;98792.81;5109721;27;20926;-80
2021/07/01 03:50:05;;;;;;;5.28;2.72;;;;;;;20.33;77.17;98794.72;5068008;28;20383;-80
2021/07/01 03:53:02;;;;;;;8.13;3.28;;;;;;;20.50;77.22;98805.72;5128428;27;20349;-83
2021/07/01 03:55:59;;;;;;;4.45;3.17;;;;;;;20.45;77.09;98791.97;5067101;28;20464;-83
2021/07/01 03:58:55;;;;;;;3.00;2.80;;;;;;;20.73;76.24;98798.56;5068292;28;20394;-82
2021/07/01 04:01:51;;;;;;;3.93;2.60;;;;;;;20.90;75.47;98815.84;5079001;27;2088401;-80
2021/07/01 04:04:46;;;;;;;5.20;2.95;;;;;;;20.88;75.27;98805.31;5109088;27;20376;-80
2021/07/01 04:07:42;;;;;;;9.23;2.90;;;;;;;20.94;75.48;98818.13;5109250;27;20897;-81
2021/07/01 04:10:38;;;;;;;4.80;2.55;;;;;;;20.89;75.40;98816.81;5068800;28;20382;-81
2021/07/01 04:13:34;;;;;;;2.63;2.30;;;;;;;20.92;75.44;98812.09;5080455;27;2044768;-83
2021/07/01 04:16:31;;;;;;;4.47;2.50;;;;;;;20.82;74.99;98807.63;5068972;28;20503;-81
2021/07/01 04:19:36;;;;;;;3.03;2.33;;;;;;;20.90;75.48;98815.84;5171183;27;20200;-82
2021/07/01 04:22:39;;;;;;;3.33;2.00;;;;;;;20.78;75.54;98798.19;5108830;27;20380;-80
2021/07/01 04:25:35;;;;;;;5.80;2.15;;;;;;;20.85;75.85;98805.56;5067803;28;20379;-79
2021/07/01 04:28:32;;;;;;;5.28;2.20;;;;;;;20.94;75.67;98806.63;5088152;27;20133;-79
2021/07/01 04:31:28;;;;;;;4.97;2.03;;;;;;;21.08;74.88;98816.97;5108935;27;20384;-81
2021/07/01 04:34:24;;;;;;;2.80;2.08;;;;;;;21.17;75.13;98812.72;5108338;27;20384;-80
2021/07/01 04:37:19;;;;;;;4.43;2.20;;;;;;;21.27;74.17;98815.50;5108214;27;20395;-83
2021/07/01 04:40:23;;;;;;;3.47;2.42;;;;;;;21.38;73.98;98828.75;5109098;27;20377;-78
2021/07/01 04:43:19;;;;;;;5.47;2.35;;;;;;;21.36;74.24;98822.72;5066581;28;20383;-79
2021/07/01 04:46:21;;;;;;;2.17;2.08;;;;;;;21.53;73.64;98820.31;5066084;28;20895;-80
2021/07/01 04:49:22;;;;;;;5.50;3.85;;;;;;;21.63;73.08;98804.47;5100104;27;1411262;-79
2021/07/01 04:52:17;;;;;;;17.52;15.05;;;;;;;22.00;72.36;98814.63;5107083;27;20391;-78
2021/07/01 04:55:20;;;;;;;2.67;2.47;;;;;;;22.52;70.20;98809.16;5108397;27;20376;-79
2021/07/01 04:58:16;;;;;;;4.50;2.50;;;;;;;23.17;67.62;98796.28;5108170;27;20380;-78
2021/07/01 05:01:11;;;;;;;2.13;1.90;;;;;;;23.74;65.56;98805.25;5104337;27;1383041;-81
2021/07/01 05:04:10;;;;;;;4.07;1.80;;;;;;;23.80;64.88;98815.41;5169998;27;20122;-78
2021/07/01 05:07:13;;;;;;;3.35;2.20;;;;;;;23.31;66.00;98806.53;5108584;27;20391;-81
2021/07/01 05:10:11;;;;;;;3.95;3.38;;;;;;;23.09;67.38;98805.00;5108615;27;20392;-80
2021/07/01 05:13:35;;;;;;;3.80;1.95;;;;;;;23.21;67.36;98812.84;5068124;28;20390;-81
2021/07/01 05:16:33;;;;;;;3.90;1.80;;;;;;;23.19;67.51;98813.00;5067559;28;20399;-80
2021/07/01 05:19:30;;;;;;;2.03;1.85;;;;;;;22.91;67.59;98792.44;5068087;28;20386;-81
2021/07/01 05:22:31;;;;;;;3.50;1.90;;;;;;;22.80;68.12;98806.75;5103308;27;1403074;-80
2021/07/01 05:25:26;;;;;;;3.78;1.88;;;;;;;22.63;68.17;98796.72;5088894;27;20370;-80
2021/07/01 05:28:22;;;;;;;3.17;1.70;;;;;;;22.57;68.53;98807.91;5107955;27;20383;-79
2021/07/01 05:31:26;;;;;;;3.70;1.70;;;;;;;22.44;67.95;98792.16;5067709;28;20740;-79
2021/07/01 05:34:27;;;;;;;3.63;2.30;;;;;;;22.70;67.57;98806.69;5103388;27;1370636;-79
2021/07/01 05:37:22;;;;;;;5.20;3.63;;;;;;;23.12;66.44;98815.38;5067582;28;20374;-81
2021/07/01 05:40:21;;;;;;;5.30;3.33;;;;;;;23.42;65.14;98817.06;5107293;27;20387;-80
2021/07/01 05:43:17;;;;;;;5.22;3.45;;;;;;;23.83;63.61;98815.13;5067691;27;20375;-76
2021/07/01 05:46:11;;;;;;;6.95;3.05;;;;;;;23.96;63.07;98814.81;5101205;27;1397851;-78
2021/07/01 05:49:14;;;;;;;5.22;3.13;;;;;;;23.71;63.45;98817.06;5106935;27;20376;-81
2021/07/01 05:52:10;;;;;;;2.80;2.28;;;;;;;23.65;63.64;98812.31;5066162;28;20382;-81
2021/07/01 05:55:09;;;;;;;5.68;3.22;;;;;;;23.91;62.80;98817.06;5128001;27;20407;-78
2021/07/01 05:58:04;;;;;;;4.00;2.85;;;;;;;23.83;62.70;98806.25;5109356;27;20388;-84
2021/07/01 06:01:08;;;;;;;6.10;2.42;;;;;;;23.67;63.79;98813.00;5107727;27;20376;-81
2021/07/01 06:04:05;;;;;;;7.03;2.35;;;;;;;23.48;64.40;98815.66;5068717;28;20394;-81
2021/07/01 06:07:10;;;;;;;9.32;2.20;;;;;;;23.26;65.61;98819.47;5068678;28;20387;-81
2021/07/01 06:10:06;;;;;;;3.35;1.92;;;;;;;23.33;65.25;98817.91;5104663;27;1379839;-83
2021/07/01 06:13:05;;;;;;;3.58;1.98;;;;;;;23.51;64.24;98815.38;5103551;27;1375044;-78
2021/07/01 06:16:12;;;;;;;2.20;1.50;;;;;;;23.65;63.55;98801.63;5069352;28;20386;-77
2021/07/01 06:19:07;;;;;;;7.22;1.92;;;;;;;23.94;62.80;98832.81;5104860;27;1377162;-79
2021/07/01 06:22:03;;;;;;;2.75;1.45;;;;;;;23.79;63.02;98831.56;5108464;27;20753;-79
2021/07/01 06:25:05;;;;;;;6.85;1.75;;;;;;;23.85;63.07;98839.84;5109902;27;1366837;-77
2021/07/01 06:28:11;;;;;;;5.70;1.80;;;;;;;23.85;62.66;98831.00;5108180;27;20385;-80
2021/07/01 06:31:11;;;;;;;3.45;1.60;;;;;;;23.33;64.31;98833.94;5068144;28;20383;-80
2021/07/01 06:33:49;;;;;;;2.35;1.40;;;;;;;23.73;62.88;98820.44;5067322;28;20379;-80
2021/07/01 06:36:28;;;;;;;1.83;1.40;;;;;;;24.39;61.12;98828.47;5066484;28;20379;-78
2021/07/01 06:39:47;;;;;;;1.40;1.30;;;;;;;24.76;59.68;98827.63;5107619;27;20383;-79
2021/07/01 06:42:47;;;;;;;4.13;1.77;;;;;;;25.41;57.56;98830.19;5105913;27;20912;-80
2021/07/01 06:45:45;;;;;;;4.50;1.70;;;;;;;25.55;55.84;98835.00;5087130;28;20389;-81
2021/07/01 06:48:53;;;;;;;2.58;1.70;;;;;;;25.52;56.42;98822.75;5106620;27;20757;-81
2021/07/01 06:52:04;;;;;;;2.58;1.67;;;;;;;26.22;54.23;98834.38;5067643;28;20398;-82
2021/07/01 06:55:12;;;;;;;7.93;2.03;;;;;;;28.16;48.97;98827.78;5027802;28;20389;-83
2021/07/01 06:57:54;;;;;;;5.80;1.48;;;;;;;28.05;48.49;98832.69;5108969;27;20881;-88
2021/07/01 07:00:32;;;;;;;1.25;1.20;;;;;;;28.02;49.52;98833.88;5107846;27;20901;-84
2021/07/01 07:03:16;;;;;;;2.28;1.70;;;;;;;28.29;47.28;98824.63;5066718;28;20394;-87
2021/07/01 07:05:54;;;;;;;2.85;1.77;;;;;;;29.87;43.85;98832.38;5067905;27;20482;-84
2021/07/01 07:08:32;;;;;;;1.80;1.70;;;;;;;29.66;43.33;98834.91;5067321;28;20371;-70
2021/07/01 07:11:10;;;;;;;1.70;1.60;;;;;;;28.55;45.92;98829.75;5068436;28;20378;-83
2021/07/01 07:13:48;;;;;;;1.40;1.30;;;;;;;29.36;43.07;98832.06;5110996;27;20400;-83
2021/07/01 07:16:27;;;;;;;2.13;1.58;;;;;;;31.84;38.63;98844.13;5069390;28;20375;-85
2021/07/01 07:19:03;;;;;;;1.70;1.60;;;;;;;33.10;34.98;98832.25;5109405;27;1377730;-87
2021/07/01 07:21:46;;;;;;;1.98;1.30;;;;;;;34.34;32.95;98827.22;5109364;27;20897;-87
2021/07/01 07:24:27;;;;;;;1.30;1.20;;;;;;;34.22;32.35;98837.03;5103135;27;1431599;-85
2021/07/01 07:27:06;;;;;;;1.42;1.33;;;;;;;32.18;36.06;98819.03;5048125;28;20916;-83
2021/07/01 07:29:43;;;;;;;2.35;1.05;;;;;;;31.57;38.01;98828.66;5067351;28;20371;-86
2021/07/01 07:32:24;;;;;;;8.45;1.38;;;;;;;31.51;38.82;98821.34;5191264;27;20756;-84
2021/07/01 07:35:02;;;;;;;2.05;1.40;;;;;;;32.05;38.10;98820.81;5107851;27;20376;-88
2021/07/01 07:37:40;;;;;;;6.13;1.60;;;;;;;30.92;40.97;98824.19;5107567;27;20388;-78
2021/07/01 07:40:18;;;;;;;1.73;1.30;;;;;;;29.95;42.25;98810.72;5066813;28;20370;-80
2021/07/01 07:42:59;;;;;;;3.63;1.38;;;;;;;29.43;42.90;98824.13;5065352;28;20402;-80
2021/07/01 07:45:36;;;;;;;4.32;1.25;;;;;;;29.14;44.48;98835.59;5107723;27;20403;-80
2021/07/01 07:48:14;;;;;;;1.67;1.20;;;;;;;29.16;44.28;98835.41;5066103;28;20382;-83
2021/07/01 07:50:53;;;;;;;4.55;1.40;;;;;;;29.47;43.57;98832.69;5106778;27;20372;-78
2021/07/01 07:53:31;;;;;;;3.33;1.30;;;;;;;29.56;42.97;98842.38;5097190;27;1511879;-78
2021/07/01 07:56:10;;;;;;;2.47;1.48;;;;;;;29.06;44.65;98841.84;5067871;28;20748;-85
2021/07/01 07:58:49;;;;;;;3.50;1.50;;;;;;;28.43;46.15;98847.28;5066463;28;20382;-77
2021/07/01 08:01:30;;;;;;;1.40;1.30;;;;;;;27.44;48.56;98840.22;5068469;28;20387;-79
2021/07/01 08:04:12;;;;;;;3.70;1.60;;;;;;;27.05;49.78;98856.09;5106902;27;20379;-84
2021/07/01 08:06:51;;;;;;;5.93;3.28;;;;;;;26.18;52.94;98850.91;5108303;27;20858;-84
2021/07/01 08:09:28;;;;;;;9.10;3.05;;;;;;;25.95;54.80;98867.50;5066574;28;20378;-80
2021/07/01 08:12:07;;;;;;;11.85;3.58;;;;;;;25.77;56.16;98871.19;5068676;28;20749;-82
2021/07/01 08:14:43;;;;;;;6.75;2.90;;;;;;;25.59;56.53;98872.03;5104390;27;1366301;-81
2021/07/01 08:17:21;;;;;;;6.30;2.55;;;;;;;25.36;57.85;98875.31;5109808;27;20384;-86
2021/07/01 08:19:59;;;;;;;4.72;2.47;;;;;;;25.20;58.42;98850.03;5109276;27;20376;-81
2021/07/01 08:22:39;;;;;;;4.22;2.58;;;;;;;25.57;58.47;98870.50;5068501;28;20379;-82
2021/07/01 08:25:20;;;;;;;3.60;2.03;;;;;;;25.65;58.17;98882.16;5109642;27;20376;-82
2021/07/01 08:27:59;;;;;;;4.80;2.30;;;;;;;25.61;58.86;98874.53;5068621;27;20895;-86
2021/07/01 08:30:35;;;;;;;3.67;2.40;;;;;;;25.70;58.29;98878.16;5104318;27;1397942;-84
2021/07/01 08:33:18;;;;;;;11.73;2.50;;;;;;;26.00;56.58;98874.22;5068206;28;20371;-84
2021/07/01 08:35:56;;;;;;;3.63;2.60;;;;;;;26.18;57.74;98883.09;5103450;27;1360308;-85
2021/07/01 08:38:37;;;;;;;7.05;2.60;;;;;;;26.55;56.86;98881.00;5106858;27;20376;-81
2021/07/01 08:41:20;;;;;;;3.03;2.15;;;;;;;26.32;57.03;98881.66;5066762;28;20756;-80
2021/07/01 08:44:08;;;;;;;5.90;2.40;;;;;;;25.75;58.99;98897.31;5087917;27;20894;-82
2021/07/01 08:46:52;;;;;;;5.72;2.30;;;;;;;25.17;58.60;98882.44;5085800;27;20382;-81
2021/07/01 08:49:37;;;;;;;4.18;2.72;;;;;;;24.95;60.98;98897.06;5067034;28;20900;-82
2021/07/01 08:52:15;;;;;;;3.53;3.22;;;;;;;24.17;62.61;98916.97;5167563;27;20406;-81
2021/07/01 08:55:01;;;;;;;3.63;3.30;;;;;;;23.67;65.03;98930.50;5105502;27;20373;-80
2021/07/01 08:57:40;;;;;;;4.13;3.83;;;;;;;23.20;67.79;98908.06;5106402;27;20380;-81
2021/07/01 09:00:16;;;;;;;8.40;4.10;;;;;;;23.10;68.33;98910.72;5106093;27;1379922;-82
2021/07/01 09:03:07;;;;;;;4.65;4.25;;;;;;;23.27;68.43;98924.38;5103650;27;1362763;-82
2021/07/01 09:05:46;;;;;;;4.72;4.10;;;;;;;23.62;67.90;98924.72;5067012;28;20371;-83
2021/07/01 09:08:27;;;;;;;5.07;3.63;;;;;;;24.08;65.64;98932.03;5107064;27;20388;-86
2021/07/01 09:11:11;;;;;;;6.93;3.67;;;;;;;24.85;63.18;98932.88;5067419;28;20379;-78
2021/07/01 09:13:50;;;;;;;4.55;3.20;;;;;;;25.57;61.53;98922.22;5065456;28;20379;-84
2021/07/01 09:16:29;;;;;;;4.40;3.10;;;;;;;26.97;57.09;98933.88;5103801;27;1368533;-79
2021/07/01 09:19:07;;;;;;;4.05;2.72;;;;;;;26.50;55.77;98912.81;5068343;28;20375;-82
2021/07/01 09:21:48;;;;;;;6.72;3.03;;;;;;;26.54;57.65;98916.88;5108485;27;20381;-83
2021/07/01 09:24:26;;;;;;;4.05;2.60;;;;;;;26.57;57.79;98921.91;5069159;28;20367;-81
2021/07/01 09:27:10;;;;;;;3.92;3.03;;;;;;;27.07;56.49;98909.63;5108387;27;20376;-72
2021/07/01 09:29:49;;;;;;;5.13;3.05;;;;;;;26.44;56.87;98923.34;5128278;27;20383;-77
2021/07/01 09:32:28;;;;;;;4.03;2.97;;;;;;;25.74;59.37;98900.97;5107974;27;20758;-79
2021/07/01 09:35:07;;;;;;;7.07;3.00;;;;;;;25.56;60.53;98899.13;5068327;28;20378;-79
2021/07/01 09:37:46;;;;;;;4.25;3.20;;;;;;;25.38;61.50;98903.63;5065255;28;20883;-80
2021/07/01 09:40:24;;;;;;;3.88;3.00;;;;;;;25.72;59.10;98917.19;5067082;28;20383;-80
2021/07/01 09:43:05;;;;;;;3.38;3.08;;;;;;;25.83;58.40;98921.47;5106560;27;20372;-75
2021/07/01 09:45:43;;;;;;;6.15;2.88;;;;;;;26.02;58.95;98923.19;5103139;27;1375700;-80
2021/07/01 09:48:22;;;;;;;4.20;2.95;;;;;;;26.16;58.07;98918.09;5066336;28;20402;-79
2021/07/01 09:51:03;;;;;;;6.40;3.45;;;;;;;26.26;56.99;98926.88;5107932;27;1375746;-82
2021/07/01 09:53:54;;;;;;;4.10;3.15;;;;;;;25.92;57.42;98920.56;5147765;27;20123;-80
2021/07/01 09:56:38;;;;;;;3.33;3.03;;;;;;;25.83;56.17;98934.88;5106955;27;20128;-71
2021/07/01 09:59:34;;;;;;;4.82;3.10;;;;;;;25.44;56.26;98929.78;5066052;28;20375;-78
2021/07/01 10:02:15;;;;;;;4.05;3.67;;;;;;;25.22;57.20;98938.22;5106617;27;20446;-77
2021/07/01 10:04:53;;;;;;;6.07;3.50;;;;;;;25.08;57.68;98933.38;5066658;28;20383;-75
2021/07/01 10:07:31;;;;;;;3.55;3.10;;;;;;;25.18;57.14;98931.47;5068468;28;20382;-87
2021/07/01 10:10:13;;;;;;;3.65;3.15;;;;;;;25.28;55.82;98933.13;5076257;28;20386;-80
2021/07/01 10:12:59;;;;;;;4.47;3.20;;;;;;;25.36;55.38;98927.03;5070911;27;20387;-83
2021/07/01 10:15:36;;;;;;;3.22;3.03;;;;;;;25.41;55.97;98922.06;5104580;27;1386952;-83
2021/07/01 10:18:14;;;;;;;3.10;2.90;;;;;;;25.25;56.25;98933.41;5088370;27;20370;-80
2021/07/01 10:20:54;;;;;;;4.80;3.45;;;;;;;24.80;57.65;98941.34;5067521;28;20825;-81
2021/07/01 10:23:36;;;;;;;3.70;3.17;;;;;;;24.86;55.64;98954.13;5107677;27;20376;-82
2021/07/01 10:26:17;;;;;;;3.50;3.20;;;;;;;24.82;55.37;98942.03;5068610;28;20383;-83
2021/07/01 10:29:00;;;;;;;3.00;2.80;;;;;;;25.13;54.64;98949.81;5103750;27;1383380;-82
2021/07/01 10:31:59;;;;;;;3.53;2.90;;;;;;;25.53;53.51;98934.22;5108933;27;20132;-84
2021/07/01 10:34:50;;;;;;;3.20;2.92;;;;;;;25.85;52.73;98955.16;5109367;27;20734;-83
2021/07/01 10:37:28;;;;;;;2.60;2.50;;;;;;;25.87;52.63;98949.66;5107727;27;20792;-80
2021/07/01 10:40:18;;;;;;;2.97;2.70;;;;;;;25.54;53.38;98935.91;5102027;27;1359391;-81
2021/07/01 10:42:57;;;;;;;3.63;2.85;;;;;;;25.38;55.94;98959.84;5104564;27;1361158;-81
2021/07/01 10:45:34;;;;;;;3.83;2.92;;;;;;;25.19;56.60;98954.56;5068138;28;20382;-83
2021/07/01 10:48:17;;;;;;;3.42;2.60;;;;;;;25.13;54.31;98952.50;5066583;28;20390;-75
2021/07/01 10:51:13;;;;;;;5.45;2.97;;;;;;;25.59;53.58;98947.00;5128801;27;20412;-81
2021/07/01 10:53:51;;;;;;;5.32;3.40;;;;;;;25.91;54.26;98951.03;5067287;28;20900;-80
2021/07/01 10:56:40;;;;;;;3.78;3.13;;;;;;;25.28;55.60;98956.38;5065358;28;20394;-79
2021/07/01 10:59:18;;;;;;;8.15;3.05;;;;;;;24.90;56.69;98974.25;5066995;28;20390;-81
2021/07/01 11:02:04;;;;;;;3.03;2.75;;;;;;;24.52;57.54;98975.19;5065698;27;20527;-79
2021/07/01 11:04:55;;;;;;;2.50;2.28;;;;;;;24.43;56.80;98977.88;5063748;28;20371;-83
2021/07/01 11:07:45;;;;;;;3.42;2.53;;;;;;;24.55;56.66;98971.41;5106446;27;1390198;-79
2021/07/01 11:10:34;;;;;;;4.88;2.50;;;;;;;24.77;55.98;98976.41;5065329;28;20931;-80
2021/07/01 11:13:13;;;;;;;7.43;2.97;;;;;;;24.80;56.42;98980.63;5106810;27;20395;-80
2021/07/01 11:16:01;;;;;;;6.78;3.63;;;;;;;24.79;57.54;98986.97;5106968;27;20757;-82
2021/07/01 11:18:44;;;;;;;5.55;2.70;;;;;;;24.58;58.45;98992.50;5108004;27;20125;-82
2021/07/01 11:21:21;;;;;;;10.63;3.00;;;;;;;24.53;58.95;98984.09;5086179;28;20370;-79
2021/07/01 11:24:23;;;;;;;4.45;2.70;;;;;;;24.31;57.33;98959.31;5108604;27;20372;-81
2021/07/01 11:27:02;;;;;;;6.03;2.80;;;;;;;24.55;56.49;98976.75;5169564;27;20138;-81
2021/07/01 11:29:46;;;;;;;6.03;2.85;;;;;;;24.60;56.58;98969.16;5108500;27;20376;-83
2021/07/01 11:32:25;;;;;;;3.90;2.92;;;;;;;24.63;56.10;98968.84;5108533;27;20896;-81
2021/07/01 11:35:03;;;;;;;8.02;3.15;;;;;;;24.76;56.00;98976.56;5068590;27;20371;-79
2021/07/01 11:37:43;;;;;;;3.83;2.80;;;;;;;24.86;56.41;98978.22;5068180;28;20868;-81
2021/07/01 11:40:22;;;;;;;4.22;2.80;;;;;;;25.00;55.82;98977.75;5108174;27;20392;-82
2021/07/01 11:43:00;;;;;;;5.88;3.25;;;;;;;24.84;55.42;98977.50;5108592;27;20694;-81
2021/07/01 11:45:36;;;;;;;5.70;3.20;;;;;;;24.82;55.79;98981.31;5077515;27;2094323;-83
2021/07/01 11:48:14;;;;;;;11.20;4.20;;;;;;;24.94;55.14;98980.16;5067374;28;20379;-82
2021/07/01 11:50:54;;;;;;;7.70;3.88;;;;;;;24.98;55.85;98974.38;5108206;27;20364;-78
2021/07/01 11:53:31;;;;;;;7.70;3.88;;;;;;;25.29;54.77;98971.44;5104027;27;1378590;-81
2021/07/01 11:56:08;;;;;;;5.90;3.92;;;;;;;25.77;53.89;98981.88;5106866;27;20380;-80
2021/07/01 11:58:47;;;;;;;7.13;3.60;;;;;;;25.83;53.83;98980.44;5105883;27;20387;-78
2021/07/01 12:01:26;;;;;;;9.95;4.22;;;;;;;25.65;52.85;98988.41;5101822;27;1383063;-82
2021/07/01 12:04:03;;;;;;;3.35;3.05;;;;;;;25.50;53.05;98968.50;5106500;27;20737;-79
2021/07/01 12:06:50;;;;;;;4.00;2.65;;;;;;;25.73;52.58;98974.31;5148093;27;20917;-78
2021/07/01 12:09:26;;;;;;;7.47;2.75;;;;;;;25.78;51.12;98974.69;5104609;27;1371367;-80
2021/07/01 12:12:03;;;;;;;3.15;2.33;;;;;;;26.08;50.78;98968.97;5107370;27;1396549;-75
2021/07/01 12:14:42;;;;;;;3.63;2.17;;;;;;;26.21;49.56;98952.47;5105684;27;1378795;-77
2021/07/01 12:17:55;;;;;;;3.50;2.33;;;;;;;26.54;49.75;98969.69;5066523;28;20371;-76
2021/07/01 12:20:55;;;;;;;4.60;2.45;;;;;;;26.84;48.74;98963.00;5107215;27;20370;-79
2021/07/01 12:23:43;;;;;;;2.85;2.25;;;;;;;27.10;47.26;98961.16;5109058;27;20881;-82
2021/07/01 12:26:29;;;;;;;2.25;2.08;;;;;;;27.62;46.71;98960.19;5104574;27;1387494;-80
2021/07/01 12:29:45;;;;;;;3.47;1.80;;;;;;;27.63;44.15;98959.19;5083747;27;2062871;-81
2021/07/01 12:32:26;;;;;;;4.38;1.70;;;;;;;27.49;44.62;98942.66;5109315;27;20399;-83
2021/07/01 12:35:39;;;;;;;4.00;1.90;;;;;;;27.46;45.08;98974.38;5111412;27;20379;-86
2021/07/01 12:38:15;;;;;;;2.25;1.80;;;;;;;27.11;45.96;98972.72;5105863;27;1484152;-82
2021/07/01 12:40:59;;;;;;;3.40;2.20;;;;;;;27.08;46.10;98978.41;5068502;28;20380;-82
2021/07/01 12:43:47;;;;;;;1.75;1.60;;;;;;;26.97;46.47;98976.00;5069695;28;20737;-85
2021/07/01 12:46:46;;;;;;;3.75;2.22;;;;;;;26.86;46.84;98969.06;5109336;27;20113;-77
2021/07/01 12:49:27;;;;;;;8.82;2.80;;;;;;;26.82;47.33;98973.91;5109627;27;20391;-82
2021/07/01 12:52:15;;;;;;;4.68;2.70;;;;;;;26.84;47.15;98957.66;5109241;27;20372;-81
2021/07/01 12:54:52;;;;;;;3.07;2.10;;;;;;;26.91;47.00;98962.22;5080175;27;2088150;-69
2021/07/01 12:57:29;;;;;;;4.97;2.33;;;;;;;26.79;47.37;98971.53;5106696;27;20391;-68
2021/07/01 13:00:08;;;;;;;2.35;2.00;;;;;;;26.67;47.40;98978.16;5107976;27;20377;-70
2021/07/01 13:02:57;;;;;;;6.57;2.08;;;;;;;26.52;47.58;98977.03;5065970;28;20378;-73
2021/07/01 13:05:36;;;;;;;5.07;1.80;;;;;;;26.62;48.38;98980.47;5086966;27;20377;-69
2021/07/01 13:08:13;;;;;;;2.03;1.77;;;;;;;26.70;47.82;98977.81;5087052;27;20378;-71
2021/07/01 13:11:04;;;;;;;5.60;2.30;;;;;;;26.66;48.46;98979.16;5081429;28;20416;-73